Search for airport 
image banner adimage banner adimage banner ad
image banner ad

PA95 - Turnpike Nr 1

Located in Harrisburg, United States

ICAO - PA95, IATA -

Data provided by Airmate  

General information

Coordinates: N40°13'0" W76°46'59"
Elevation is 348 feet MSL.
Magnetic variation is -10° East
View others Airports in Pennsylvania

Operational data

Special qualification required
Current time UTC:
Current local time:
Weather at : KMDT - Harrisburg Intl ( 3 km )
METAR: KMDT 091556Z 20008KT 7SM -RA OVC040 11/03 A3008 RMK AO2 RAB15 SLP186 P0001 T01060033 $
TAF: KMDT 091537Z 0916/1012 19007KT 5SM -RA BR OVC025 FM100400 35007KT 3SM -RA BR BKN009 OVC018 WS020/24041KT FM101000 34008G16KT P6SM BKN015 OVC025
View NOTAMs / SUP AIP / TFR affecting this airport [VIEW]
Communications frequencies: [VIEW]

Runways:

Airport contact information

Address: Harrisburg United States

Satellite view of PA95